Cotulla, TX

10:10 AM CDT on September 23, 2014 (GMT -0500)
Cotulla-La Salle County | Change Station
CLOSE
Current Station
Airport
Location: Cotulla,
Elevation: 476 ft
Nearby Weather Stations

Elev 476 ft 28.46 °N, 99.22 °W | Updated 17 minutes ago

Overcast
Overcast
79 °F
Feels Like 79 °F
N
6
Wind Variable Wind from East

Today
High -- | Low -- °F
--% Chance of Precip.
Yesterday
High -- | Low -- °F
Precip. -- in
7:26 AM 7:32 PM
Waning Crescent, 0% visible
Pressure 30.10 in
Visibility 8.0 miles
Clouds Mostly Cloudy 2700 ft
Mostly Cloudy 4500 ft
Overcast 5500 ft
Dew Point 69 °F
Humidity 72%
Rainfall 0.00 in
Snow Depth Not available.
UV 1 out of 12
Pollen 10.40 out of 12
Air Quality Not available.
Flu Activity Not available.
METAR KCOT 231453Z AUTO 09005KT 8SM BKN027 BKN045 OVC055 26/21 A3012 RMK AO2 SLP191 T02610206 51013

More Conditions Fewer Conditions

Pressure 30.10 in
Visibility 8.0 miles
Clouds Mostly Cloudy 2700 ft
Mostly Cloudy 4500 ft
Overcast 5500 ft
Dew Point 69 °F
Humidity 72%
Rainfall 0.00 in
Snow Depth Not available.
UV 1 out of 12
Pollen 10.40 out of 12
Air Quality Not available.
Flu Activity Not available.
METAR KCOT 231453Z AUTO 09005KT 8SM BKN027 BKN045 OVC055 26/21 A3012 RMK AO2 SLP191 T02610206 51013

More Conditions Fewer Conditions

10-Day Weather Forecast

Almanac

Astronomy

Sep. 23, 2014 Rise Set
Actual Time 7:26 AM CDT 7:32 PM CDT
Civil Twilight 7:02 AM CDT 7:55 PM CDT
Nautical Twilight 6:35 AM CDT 8:23 PM CDT
Astronomical Twilight 6:07 AM CDT 8:50 PM CDT
Moon 6:52 AM CDT 7:13 PM CDT
Length of Visible Light 12h 53m
Length of Day
12h 06m
Tomorrow will be 1m 40s shorter.
Waning Crescent, 0% of the Moon is Illuminated
Today
Waning Crescent
Sep 24
New
Oct 1
First Quarter
Oct 8
Full
Oct 15
Last Quarter

Today's Extremes

State Highs State Lows

Community

WunderPhotos

Upload Photos

1,755,716 photos uploaded!

Nearby

Snow Depth

Station Depth Elevation
No new snow has been reported.

Earthquake Activity

City Distance Mag. Time & Date
No recent earthquake activity has been reported nearby.
Minimum magnitude displayed is 2.5.

Coastal Water Temperatures

Place Temperature
No Stations Reporting

Nearby Weather Stations